ADDS METAR Data INFO
IDs: Format: Raw Decoded Include TAF

Data at: 1506 UTC 23 Oct 2017

KCHK 231455Z AUTO 00000KT 10SM CLR 13/08 A3006 RMK AO2 T01320080
KCHK 231435Z AUTO 30003KT 10SM CLR 12/07 A3007 RMK AO2 T01220068
KCHK 231415Z AUTO 00000KT 10SM CLR 11/06 A3005 RMK AO2 T01140062
KCHK 231355Z AUTO 00000KT 10SM CLR 11/06 A3005 RMK AO2 T01060064
KCHK 231335Z AUTO 18004KT 10SM CLR 10/06 A3004 RMK AO2 T00980057
KCHK 231315Z AUTO 00000KT 10SM CLR 09/05 A3005 RMK AO2 T00930049
KCHK 231255Z AUTO 17003KT 10SM CLR 08/05 A3004 RMK AO2 T00830046
KCHK 231235Z AUTO 17004KT 10SM CLR 07/05 A3004 RMK AO2 T00740051
KCHK 231215Z AUTO 00000KT 10SM CLR 08/05 A3004 RMK AO2 T00830053
KCHK 231155Z AUTO 00000KT 10SM CLR 08/05 A3004 RMK AO2 T00800054 10105 20072
KCHK 231135Z AUTO 15004KT 10SM CLR 08/05 A3004 RMK AO2 T00790055
KCHK 231115Z AUTO 16003KT 10SM CLR 08/06 A3004 RMK AO2 T00780055
KCHK 231055Z AUTO 00000KT 10SM CLR 08/05 A3005 RMK AO2 T00810054
KCHK 231035Z AUTO 11003KT 10SM CLR 08/06 A3005 RMK AO2 T00770056
KCHK 231015Z AUTO 00000KT 10SM CLR 08/05 A3005 RMK AO2 T00750052
KCHK 230955Z AUTO 00000KT 10SM CLR 07/05 A3005 RMK AO2 T00750052
KCHK 230935Z AUTO 00000KT 10SM CLR 08/07 A3006 RMK AO2 T00850066
KCHK 230915Z AUTO 14003KT 10SM CLR 08/06 A3005 RMK AO2 T00810056
KCHK 230855Z AUTO 14003KT 10SM CLR 08/06 A3006 RMK AO2 T00840058
KCHK 230835Z AUTO 13004KT 10SM CLR 09/06 A3006 RMK AO2 T00880056
KCHK 230815Z AUTO 15004KT 10SM CLR 09/05 A3007 RMK AO2 T00890052
KCHK 230755Z AUTO 12004KT 10SM CLR 09/05 A3008 RMK AO2 T00930054
KCHK 230735Z AUTO 12003KT 10SM CLR 09/06 A3008 RMK AO2 T00890057
KCHK 230715Z AUTO 12003KT 10SM CLR 09/06 A3008 RMK AO2 T00890059
KCHK 230655Z AUTO 13004KT 10SM CLR 10/06 A3008 RMK AO2 T00970059
KCHK 230635Z AUTO 12005KT 10SM CLR 10/06 A3008 RMK AO2 T00990058
KCHK 230615Z AUTO 13005KT 10SM CLR 10/06 A3009 RMK AO2 T00970057
KCHK 230555Z AUTO 00000KT 10SM CLR 10/07 A3010 RMK AO2 T01000070 10171 20097
KCHK 230535Z AUTO 00000KT 10SM CLR 10/06 A3010 RMK AO2 T01020063
KCHK 230515Z AUTO 12005KT 5SM HZ CLR 10/07 A3010 RMK AO2 T01040065
KCHK 230455Z AUTO 12003KT 1SM HZ VV005 10/07 A3010 RMK AO2 VIS 1/4V3 1/2 T00990069
KCHK 230435Z AUTO 14003KT CLR 11/05 A3010 RMK AO2 T01120055
KCHK 230415Z AUTO 17004KT 10SM CLR 12/06 A3011 RMK AO2 T01160057
KCHK 230355Z AUTO 18003KT 10SM CLR 11/06 A3011 RMK AO2 T01140059
KCHK 230335Z AUTO 19004KT 10SM CLR 12/06 A3011 RMK AO2 T01150062
KCHK 230315Z AUTO 17004KT 10SM CLR 11/07 A3011 RMK AO2 T01130067
KCHK 230255Z AUTO 17005KT 10SM CLR 12/06 A3011 RMK AO2 T01190065
KCHK 230235Z AUTO 17005KT 10SM CLR 13/07 A3011 RMK AO2 T01260065
KCHK 230215Z AUTO 16005KT 10SM CLR 13/06 A3011 RMK AO2 T01320065
KCHK 230155Z AUTO 16004KT 10SM CLR 13/08 A3012 RMK AO2 T01310076
KCHK 230130Z AUTO 16004KT 10SM CLR 14/07 A3012 RMK AO2 T01400069
KCHK 230115Z AUTO 15004KT 10SM CLR 13/07 A3012 RMK AO2 T01320069
KCHK 230055Z AUTO 13005KT 10SM CLR 15/06 A3012 RMK AO2 T01550056
KCHK 230035Z AUTO 14004KT 10SM CLR 15/06 A3012 RMK AO2 T01520063
KCHK 230015Z AUTO 13005KT 7SM CLR 15/07 A3012 RMK AO2 T01540070
KCHK 222355Z AUTO 11006KT 10SM CLR 17/06 A3012 RMK AO2 T01740058 10205 20172 402440093
KCHK 222335Z AUTO 13004KT 10SM CLR 18/06 A3012 RMK AO2 T01820061
KCHK 222300Z AUTO 14004KT 10SM CLR 19/06 A3012 RMK AO2 T01940060
KCHK 222235Z AUTO 00000KT 7SM CLR 20/03 A3012 RMK AO2 T02030029
KCHK 222215Z AUTO 00000KT 10SM CLR 20/04 A3013 RMK AO2 T02020037
KCHK 222155Z AUTO 02005KT 10SM CLR 20/05 A3014 RMK AO2 T02010051
KCHK 222135Z AUTO 01005KT 10SM CLR 20/03 A3014 RMK AO2 T02010033
KCHK 222115Z AUTO 01004KT 10SM CLR 20/05 A3014 RMK AO2 T02030049
KCHK 222055Z AUTO 34005KT 10SM CLR 20/03 A3014 RMK AO2 T02010032
KCHK 222035Z AUTO 35004KT 10SM CLR 20/04 A3015 RMK AO2 T02000041
KCHK 222015Z AUTO 35006KT 10SM CLR 20/05 A3015 RMK AO2 T01990052
KCHK 221955Z AUTO 36008KT 10SM CLR 20/05 A3016 RMK AO2 T01960050
KCHK 221935Z AUTO 36009KT 10SM CLR 20/06 A3016 RMK AO2 T01980060
KCHK 221915Z AUTO 35007KT 10SM CLR 19/06 A3017 RMK AO2
KCHK 221855Z AUTO 01009KT 10SM CLR 19/06 A3018 RMK AO2 T01910058
KCHK 221830Z AUTO 35008KT 10SM CLR 19/06 A3019 RMK AO2 T01880063
KCHK 221815Z AUTO 36008KT 10SM CLR 19/06 A3020 RMK AO2 T01860062
KCHK 221755Z AUTO 36010KT 10SM CLR 18/07 A3021 RMK AO2 T01850070 10186 20093
KCHK 221735Z AUTO 36008KT 10SM CLR 18/06 A3022 RMK AO2 T01800064
KCHK 221710Z AUTO 34007KT 10SM CLR 18/06 A3022 RMK AO2 T01760064
KCHK 221655Z AUTO 35010KT 10SM CLR 17/07 A3022 RMK AO2 T01730068
KCHK 221635Z AUTO 34010KT 10SM CLR 17/08 A3022 RMK AO2 T01670081
KCHK 221620Z AUTO 31010KT 10SM CLR 16/08 A3022 RMK AO2 T01620082
KCHK 221555Z AUTO 33012KT 10SM CLR 15/08 A3021 RMK AO2 T01550082
KCHK 221530Z AUTO 33012KT 10SM CLR 15/08 A3020 RMK AO2 T01470081
KCHK 221515Z AUTO 33011KT 10SM CLR 14/08 A3020 RMK AO2 T01420080
KCHK 221455Z AUTO 33009KT 10SM CLR 13/09 A3019 RMK AO2 T01320088
KCHK 221435Z AUTO 32008KT 10SM CLR 12/09 A3019 RMK AO2 T01230087
KCHK 221415Z AUTO 31007KT 10SM CLR 11/09 A3017 RMK AO2 T01130086
KCHK 221355Z AUTO 32006KT 10SM CLR 10/09 A3017 RMK AO2 T01040088
KCHK 221335Z AUTO 30006KT 10SM CLR 10/09 A3016 RMK AO2 T00990090
KCHK 221315Z AUTO 30007KT 10SM CLR 09/09 A3015 RMK AO2 T00950088
KCHK 221255Z AUTO 31007KT 10SM CLR 09/09 A3014 RMK AO2 T00940087
KCHK 221235Z AUTO 31006KT 10SM CLR 10/09 A3014 RMK AO2 T00960088
KCHK 221220Z AUTO 31007KT 10SM CLR 10/09 A3013 RMK AO2 T00970090
KCHK 221155Z AUTO 31005KT 10SM CLR 10/09 A3013 RMK AO2 T01030094 10143 20102 70177
KCHK 221135Z AUTO 31005KT 10SM CLR 10/09 A3012 RMK AO2 T01050095
KCHK 221115Z AUTO 32006KT 10SM CLR 11/10 A3012 RMK AO2 T01130100
KCHK 221055Z AUTO 34007KT 10SM CLR 11/10 A3010 RMK AO2 T01120098
KCHK 221035Z AUTO 34008KT 10SM CLR 11/10 A3009 RMK AO2 T01120100
KCHK 221015Z AUTO 36008KT 10SM CLR 11/10 A3010 RMK AO2 T01150100
KCHK 220955Z AUTO 36008KT 10SM CLR 12/10 A3008 RMK AO2 T01180103
KCHK 220935Z AUTO 35009KT 10SM CLR 12/10 A3008 RMK AO2 T01200103
KCHK 220915Z AUTO 35007KT 10SM CLR 12/11 A3008 RMK AO2 T01230106
KCHK 220855Z AUTO 34009KT 10SM CLR 13/11 A3007 RMK AO2 T01250106
KCHK 220835Z AUTO 36008KT 10SM CLR 13/11 A3005 RMK AO2 T01290106
KCHK 220815Z AUTO 01012KT 10SM CLR 13/11 A3003 RMK AO2 LTG DSNT E T01300109
KCHK 220755Z AUTO 01009KT 10SM CLR 13/11 A3004 RMK AO2 T01320111
KCHK 220735Z AUTO 01012KT 10SM CLR 13/11 A3003 RMK AO2 LTG DSNT SE T01330112
KCHK 220715Z AUTO 36013KT 10SM CLR 14/11 A3002 RMK AO2 LTG DSNT NE AND E T01360112
KCHK 220655Z AUTO 01013KT 10SM CLR 14/11 A3001 RMK AO2 T01380113
KCHK 220635Z AUTO 01012KT 10SM CLR 14/12 A3000 RMK AO2 T01410116
KCHK 220615Z AUTO 01016KT 10SM CLR 14/12 A2998 RMK AO2 T01420122
KCHK 220555Z AUTO 01011G21KT 10SM CLR 14/12 A2998 RMK AO2 LTG DSNT NE AND E P0001 T01430124 10244 20141 60177
KCHK 220535Z AUTO 02018G24KT 10SM SCT110 14/12 A2995 RMK AO2 LTG DSNT NE THRU S P0001 T01420125
KCHK 220515Z AUTO 04026G31KT 10SM -RA BKN100 OVC120 14/12 A2990 RMK AO2 LTG DSNT NE THRU S P0001 T01410124
KCHK 220455Z AUTO 02019KT 10SM -VCTSRA OVC100 14/13 A2994 RMK AO2 LTG DSNT ALQDS P0010 T01430126
KCHK 220435Z AUTO 34015KT 10SM -TSRA OVC100 14/13 A3000 RMK AO2 LTG DSNT ALQDS P0009 T01430127
KCHK 220415Z AUTO 34012KT 10SM RA OVC090 14/13 A2998 RMK AO2 LTG DSNT ALQDS P0008 T01430126
KCHK 220355Z AUTO 33008KT 10SM TSRA OVC100 15/12 A2999 RMK AO2 LTG DSNT ALQDS P0007 T01450125
KCHK 220335Z AUTO 31010KT 10SM TSRA OVC100 15/13 A2997 RMK AO2 LTG DSNT ALQDS P0004 T01480127
KCHK 220315Z AUTO 36017KT 10SM -VCTSRA OVC100 15/13 A2989 RMK AO2 LTG DSNT ALQDS P0002 T01490129